createdAt,value
2022-12-08T00:00:53.653Z,99808.38
2022-12-08T00:03:23.966Z,99805.78
2022-12-08T00:06:09.201Z,99807.38
2022-12-08T00:08:51.629Z,99797.75
2022-12-08T00:11:22.251Z,99793.63
2022-12-08T00:13:52.328Z,99802.28
2022-12-08T00:16:22.474Z,99789.34
2022-12-08T00:18:52.697Z,99791.88
2022-12-08T00:21:25.399Z,99791.72
2022-12-08T00:23:57.940Z,99795.22
2022-12-08T00:26:27.943Z,99804.03
2022-12-08T00:28:58.075Z,99803.19
2022-12-08T00:31:28.189Z,99812.75
2022-12-08T00:33:58.395Z,99810.16
2022-12-08T00:36:31.580Z,99802.28
2022-12-08T00:39:04.310Z,99816.25
2022-12-08T00:41:46.808Z,99818.16
2022-12-08T00:44:19.179Z,99815.69
2022-12-08T00:46:50.144Z,99808.00
2022-12-08T00:49:20.739Z,99809.84
2022-12-08T00:51:53.493Z,99820.22
2022-12-08T00:54:26.305Z,99816.22
2022-12-08T00:56:56.453Z,99821.22
2022-12-08T00:59:27.008Z,99816.84
2022-12-08T01:01:57.081Z,99823.75
2022-12-08T01:04:27.301Z,99827.25
2022-12-08T01:06:59.971Z,99817.75
2022-12-08T01:09:30.005Z,99818.59
2022-12-08T01:12:00.088Z,99820.44
2022-12-08T01:14:30.212Z,99807.88
2022-12-08T01:17:00.444Z,99809.63
2022-12-08T01:19:31.107Z,99803.66
2022-12-08T01:22:03.830Z,99798.00
2022-12-08T01:24:36.000Z,99799.94
2022-12-08T01:27:06.055Z,99791.59
2022-12-08T01:29:36.275Z,99797.00
2022-12-08T01:32:06.447Z,99791.00
2022-12-08T01:34:36.458Z,99793.88
2022-12-08T01:37:09.076Z,99802.69
2022-12-08T01:39:40.983Z,99819.91
2022-12-08T01:42:22.237Z,99836.78
2022-12-08T01:45:17.031Z,99839.44
2022-12-08T01:47:51.269Z,99841.25
2022-12-08T01:50:23.292Z,99843.75
2022-12-08T01:53:00.309Z,99840.34
2022-12-08T01:55:36.440Z,99839.56
2022-12-08T01:58:10.065Z,99832.94
2022-12-08T02:00:40.080Z,99844.09
2022-12-08T02:03:16.267Z,99838.97
2022-12-08T02:05:47.595Z,99839.22
2022-12-08T02:08:20.975Z,99841.09
2022-12-08T02:10:54.889Z,99815.72
2022-12-08T02:13:27.399Z,99834.44
2022-12-08T02:16:05.720Z,99836.91
2022-12-08T02:19:28.548Z,99832.00
2022-12-08T02:21:54.259Z,99827.97
2022-12-08T02:24:34.344Z,99832.25
2022-12-08T02:27:28.975Z,99825.50
2022-12-08T02:30:13.606Z,99830.81
2022-12-08T02:33:12.561Z,99825.03
2022-12-08T02:35:55.299Z,99821.06
2022-12-08T02:38:40.547Z,99828.72
2022-12-08T02:41:21.866Z,99832.38
2022-12-08T02:43:59.614Z,99825.50
2022-12-08T02:46:34.290Z,99823.75
2022-12-08T02:49:05.387Z,99819.66
2022-12-08T02:51:40.156Z,99824.66
2022-12-08T02:54:10.367Z,99822.81
2022-12-08T02:56:57.969Z,99825.22
2022-12-08T02:59:50.874Z,99824.06
2022-12-08T03:02:33.240Z,99824.66
2022-12-08T03:05:10.392Z,99825.19
2022-12-08T03:07:50.665Z,99830.19
2022-12-08T03:10:26.046Z,99826.66
2022-12-08T03:13:01.921Z,99833.19
2022-12-08T03:15:34.813Z,99813.31
2022-12-08T03:18:08.441Z,99821.41
2022-12-08T03:20:40.049Z,99821.22
2022-12-08T03:23:16.156Z,99828.78
2022-12-08T03:25:51.640Z,99827.81
2022-12-08T03:28:21.847Z,99828.72
2022-12-08T03:30:58.445Z,99830.47
2022-12-08T03:33:33.490Z,99823.75
2022-12-08T03:36:07.612Z,99814.34
2022-12-08T03:38:44.763Z,99812.59
2022-12-08T03:41:21.324Z,99812.44
2022-12-08T03:43:52.786Z,99802.25
2022-12-08T03:48:55.334Z,99806.59
2022-12-08T03:51:27.395Z,99798.03
2022-12-08T03:54:00.994Z,99812.84
2022-12-08T03:56:32.338Z,99816.34
2022-12-08T03:59:02.786Z,99804.31
2022-12-08T04:01:32.973Z,99813.09
2022-12-08T04:04:03.143Z,99802.81
2022-12-08T04:06:33.440Z,99807.16
2022-12-08T04:09:06.130Z,99807.28
2022-12-08T04:11:36.297Z,99810.84
2022-12-08T04:14:06.523Z,99803.84
2022-12-08T04:16:36.660Z,99804.75
2022-12-08T04:19:06.935Z,99811.69
2022-12-08T04:21:37.447Z,99802.16
2022-12-08T04:24:10.728Z,99803.78
2022-12-08T04:26:40.781Z,99803.66
2022-12-08T04:29:10.878Z,99807.03
2022-12-08T04:31:41.090Z,99799.19
2022-12-08T04:34:11.931Z,99808.66
2022-12-08T04:36:42.099Z,99800.63
2022-12-08T04:39:14.764Z,99809.03
2022-12-08T04:41:44.861Z,99806.41
2022-12-08T04:44:15.035Z,99794.06
2022-12-08T04:46:45.070Z,99794.84
2022-12-08T04:49:15.173Z,99795.38
2022-12-08T04:51:45.234Z,99790.03
2022-12-08T04:54:17.853Z,99793.22
2022-12-08T04:56:48.032Z,99786.06
2022-12-08T04:59:18.116Z,99785.91
2022-12-08T05:01:48.266Z,99784.03
2022-12-08T05:04:18.454Z,99785.66
2022-12-08T05:06:48.474Z,99786.22
2022-12-08T05:09:21.167Z,99786.84
2022-12-08T05:11:51.332Z,99788.59
2022-12-08T05:14:22.309Z,99792.75
2022-12-08T05:16:52.446Z,99795.16
2022-12-08T05:19:24.820Z,99794.94
2022-12-08T05:21:55.002Z,99793.34
2022-12-08T05:24:27.964Z,99793.91
2022-12-08T05:26:58.053Z,99796.63
2022-12-08T05:29:28.613Z,99796.44
2022-12-08T05:31:58.853Z,99794.53
2022-12-08T05:34:29.227Z,99793.41
2022-12-08T05:36:59.264Z,99790.72
2022-12-08T05:39:32.108Z,99793.13
2022-12-08T05:42:02.501Z,99786.16
2022-12-08T05:44:32.720Z,99795.66
2022-12-08T05:47:03.046Z,99791.16
2022-12-08T05:49:33.220Z,99790.31
2022-12-08T05:52:03.342Z,99791.16
2022-12-08T05:54:35.977Z,99791.09
2022-12-08T05:57:06.287Z,99785.81
2022-12-08T05:59:37.203Z,99794.41
2022-12-08T06:02:07.377Z,99797.78
2022-12-08T06:04:37.479Z,99788.22
2022-12-08T06:07:10.672Z,99768.88
2022-12-08T06:09:47.496Z,99796.78
2022-12-08T06:12:17.638Z,99798.56
2022-12-08T06:14:48.811Z,99799.47
2022-12-08T06:17:18.964Z,99801.28
2022-12-08T06:19:49.040Z,99798.75
2022-12-08T06:22:19.039Z,99805.56
2022-12-08T06:24:51.801Z,99807.19
2022-12-08T06:27:21.896Z,99818.34
2022-12-08T06:29:51.992Z,99810.41
2022-12-08T06:32:27.294Z,99811.09
2022-12-08T06:34:57.724Z,99811.75
2022-12-08T06:37:27.960Z,99815.59
2022-12-08T06:40:01.259Z,99813.53
2022-12-08T06:42:47.255Z,99815.06
2022-12-08T06:45:19.424Z,99823.50
2022-12-08T06:47:49.461Z,99825.84
2022-12-08T06:50:19.524Z,99827.34
2022-12-08T06:53:00.801Z,99827.34
2022-12-08T06:58:27.575Z,99829.03
2022-12-08T07:00:57.773Z,99821.41
2022-12-08T07:03:27.876Z,99819.47
2022-12-08T07:06:03.780Z,99828.81
2022-12-08T07:08:35.159Z,99832.13
2022-12-08T07:11:18.027Z,99835.19
2022-12-08T07:13:49.465Z,99838.34
2022-12-08T07:16:19.567Z,99841.63
2022-12-08T07:18:49.785Z,99830.28
2022-12-08T07:21:20.764Z,99835.22
2022-12-08T07:23:57.330Z,99836.13
2022-12-08T07:26:30.503Z,99843.72
2022-12-08T07:29:00.713Z,99835.22
2022-12-08T07:31:31.408Z,99831.06
2022-12-08T07:34:01.931Z,99842.81
2022-12-08T07:36:32.708Z,99838.28
2022-12-08T07:39:02.884Z,99843.09
2022-12-08T07:41:36.322Z,99850.84
2022-12-08T07:44:07.148Z,99842.25
2022-12-08T07:46:37.228Z,99844.41
2022-12-08T07:49:07.452Z,99850.09
2022-12-08T07:51:37.562Z,99847.25
2022-12-08T07:54:07.825Z,99851.38
2022-12-08T07:56:40.459Z,99854.16
2022-12-08T07:59:10.585Z,99856.06
2022-12-08T08:01:41.381Z,99858.44
2022-12-08T08:04:14.515Z,99850.63
2022-12-08T08:06:44.651Z,99856.41
2022-12-08T08:09:15.389Z,99864.16
2022-12-08T08:12:01.279Z,99865.09
2022-12-08T08:14:38.583Z,99862.63
2022-12-08T08:17:08.808Z,99866.25
2022-12-08T08:19:39.193Z,99866.06
2022-12-08T08:22:09.343Z,99871.59
2022-12-08T08:24:44.638Z,99876.34
2022-12-08T08:27:17.865Z,99876.03
2022-12-08T08:29:48.207Z,99872.44
2022-12-08T08:32:18.291Z,99873.56
2022-12-08T08:34:48.397Z,99875.94
2022-12-08T08:37:18.564Z,99872.81
2022-12-08T08:39:48.858Z,99882.03
2022-12-08T08:42:21.520Z,99868.00
2022-12-08T08:44:52.927Z,99863.56
2022-12-08T08:47:23.080Z,99858.16
2022-12-08T08:49:53.224Z,99853.03
2022-12-08T08:52:23.290Z,99856.16
2022-12-08T08:54:53.433Z,99863.59
2022-12-08T08:57:26.384Z,99854.84
2022-12-08T08:59:56.787Z,99852.66
2022-12-08T09:02:27.025Z,99848.56
2022-12-08T09:04:57.214Z,99846.47
2022-12-08T09:07:27.443Z,99842.09
2022-12-08T09:10:01.849Z,99844.53
2022-12-08T09:12:34.900Z,99839.28
2022-12-08T09:15:04.928Z,99829.66
2022-12-08T09:17:35.067Z,99825.97
2022-12-08T09:20:05.595Z,99827.59
2022-12-08T09:22:35.927Z,99821.44
2022-12-08T09:25:06.452Z,99808.09
2022-12-08T09:27:39.097Z,99822.78
2022-12-08T09:30:11.022Z,99815.72
2022-12-08T09:32:41.138Z,99805.94
2022-12-08T09:35:11.755Z,99801.06
2022-12-08T09:37:41.768Z,99803.13
2022-12-08T09:40:18.414Z,99795.47
2022-12-08T09:42:55.740Z,99792.84
2022-12-08T09:45:29.543Z,99795.75
2022-12-08T09:48:03.794Z,99798.19
2022-12-08T09:50:38.060Z,99797.72
2022-12-08T09:53:15.327Z,99805.16
2022-12-08T09:55:49.720Z,99804.53
2022-12-08T09:58:30.804Z,99795.75
2022-12-08T10:01:02.157Z,99796.69
2022-12-08T10:03:33.565Z,99796.41
2022-12-08T10:06:10.722Z,99789.75
2022-12-08T10:08:49.225Z,99787.34
2022-12-08T10:11:27.244Z,99775.53
2022-12-08T10:14:06.651Z,99771.72
2022-12-08T10:16:42.189Z,99773.69
2022-12-08T10:19:17.623Z,99774.09
2022-12-08T10:21:48.406Z,99767.91
2022-12-08T10:24:28.976Z,99767.81
2022-12-08T10:26:59.662Z,99760.31
2022-12-08T10:29:32.572Z,99749.31
2022-12-08T10:32:03.318Z,99735.69
2022-12-08T10:34:33.406Z,99734.75
2022-12-08T10:37:03.492Z,99732.13
2022-12-08T10:39:39.276Z,99722.28
2022-12-08T10:42:22.199Z,99724.78
2022-12-08T10:45:25.089Z,99715.16
2022-12-08T10:48:02.789Z,99725.97
2022-12-08T10:50:37.936Z,99727.31
2022-12-08T10:53:16.229Z,99726.91
2022-12-08T10:55:48.619Z,99719.00
2022-12-08T10:58:30.438Z,99712.19
2022-12-08T11:01:07.796Z,99708.53
2022-12-08T11:03:40.494Z,99709.59
2022-12-08T11:06:17.799Z,99710.72
2022-12-08T11:08:52.085Z,99714.47
2022-12-08T11:11:29.224Z,99710.00
2022-12-08T11:13:59.659Z,99699.19
2022-12-08T11:16:32.491Z,99704.53
2022-12-08T11:19:08.362Z,99697.22
2022-12-08T11:21:40.213Z,99696.47
2022-12-08T11:24:25.368Z,99686.16
2022-12-08T11:26:57.977Z,99674.19
2022-12-08T11:29:29.112Z,99682.06
2022-12-08T11:32:05.787Z,99680.06
2022-12-08T11:34:41.771Z,99662.84
2022-12-08T11:37:18.993Z,99622.13
2022-12-08T11:39:53.263Z,99650.97
2022-12-08T11:42:29.154Z,99636.56
2022-12-08T11:45:02.211Z,99638.91
2022-12-08T11:47:40.013Z,99620.91
2022-12-08T11:50:22.989Z,99619.47
2022-12-08T11:52:54.384Z,99618.09
2022-12-08T11:55:37.460Z,99628.91
2022-12-08T11:58:19.667Z,99634.78
2022-12-08T12:00:49.904Z,99631.69
2022-12-08T12:03:31.191Z,99606.78
2022-12-08T12:09:21.289Z,99614.94
2022-12-08T12:12:16.929Z,99612.03
2022-12-08T12:15:16.020Z,99615.59
2022-12-08T12:17:50.842Z,99630.31
2022-12-08T12:20:28.910Z,99639.63
2022-12-08T12:23:06.159Z,99632.72
2022-12-08T12:25:38.649Z,99626.00
2022-12-08T12:28:11.779Z,99625.16
2022-12-08T12:31:00.794Z,99621.19
2022-12-08T12:33:33.370Z,99627.00
2022-12-08T12:36:10.404Z,99627.13
2022-12-08T12:38:55.812Z,99623.53
2022-12-08T12:41:28.882Z,99610.16
2022-12-08T12:44:37.843Z,99621.63
2022-12-08T12:47:13.149Z,99611.00
2022-12-08T12:50:17.772Z,99619.88
2022-12-08T12:52:54.593Z,99606.38
2022-12-08T12:55:31.196Z,99601.59
2022-12-08T12:58:01.896Z,99576.13
2022-12-08T13:00:31.988Z,99590.94
2022-12-08T13:03:02.380Z,99581.81
2022-12-08T13:05:37.183Z,99584.53
2022-12-08T13:08:19.576Z,99575.41
2022-12-08T13:11:00.130Z,99575.69
2022-12-08T13:13:31.288Z,99585.25
2022-12-08T13:16:17.104Z,99581.28
2022-12-08T13:18:52.406Z,99588.19
2022-12-08T13:21:25.327Z,99582.78
2022-12-08T13:24:17.886Z,99575.63
2022-12-08T13:26:49.500Z,99571.22
2022-12-08T13:29:23.139Z,99569.97
2022-12-08T13:31:55.723Z,99580.47
2022-12-08T13:34:34.219Z,99582.00
2022-12-08T13:37:26.767Z,99577.94
2022-12-08T13:40:04.038Z,99587.06
2022-12-08T13:42:38.831Z,99583.84
2022-12-08T13:45:33.455Z,99579.25
2022-12-08T13:48:51.193Z,99585.22
2022-12-08T13:53:22.519Z,99581.97
2022-12-08T13:57:11.979Z,99581.34
2022-12-08T13:59:47.500Z,99579.19
2022-12-08T14:02:23.459Z,99579.06
2022-12-08T14:05:34.567Z,99573.38
2022-12-08T14:07:48.690Z,99573.38
2022-12-08T14:10:23.419Z,99572.88
2022-12-08T14:13:01.097Z,99571.84
2022-12-08T14:15:38.239Z,99572.91
2022-12-08T14:18:12.417Z,99574.03
2022-12-08T14:21:19.047Z,99561.50
2022-12-08T14:23:32.640Z,99558.75
2022-12-08T14:26:02.727Z,99550.78
2022-12-08T14:28:43.044Z,99552.16
2022-12-08T14:31:15.061Z,99562.97
2022-12-08T14:33:45.417Z,99557.63
2022-12-08T14:36:16.880Z,99565.69
2022-12-08T14:38:48.374Z,99557.69
2022-12-08T14:41:18.476Z,99568.19
2022-12-08T14:44:01.305Z,99559.72
2022-12-08T14:46:31.966Z,99554.47
2022-12-08T14:49:02.070Z,99551.31
2022-12-08T14:51:34.754Z,99551.22
2022-12-08T14:54:09.517Z,99549.47
2022-12-08T14:56:42.175Z,99543.31
2022-12-08T14:59:21.562Z,99539.94
2022-12-08T15:01:53.939Z,99552.38
2022-12-08T15:04:28.757Z,99553.53
2022-12-08T15:07:05.546Z,99558.88
2022-12-08T15:09:39.901Z,99549.75
2022-12-08T15:12:27.110Z,99546.66
2022-12-08T15:15:02.462Z,99542.78
2022-12-08T15:17:37.227Z,99548.00
2022-12-08T15:20:09.741Z,99535.34
2022-12-08T15:22:39.870Z,99539.50
2022-12-08T15:25:15.556Z,99533.38
2022-12-08T15:27:50.711Z,99523.44
2022-12-08T15:30:23.985Z,99520.28
2022-12-08T15:32:56.086Z,99515.72
2022-12-08T15:35:26.327Z,99521.22
2022-12-08T15:37:56.732Z,99518.06
2022-12-08T15:40:27.337Z,99516.19
2022-12-08T15:42:57.441Z,99521.44
2022-12-08T15:45:34.695Z,99508.25
2022-12-08T15:48:04.987Z,99506.78
2022-12-08T15:50:35.045Z,99502.19
2022-12-08T15:53:05.285Z,99500.06
2022-12-08T15:55:38.755Z,99498.09
2022-12-08T16:01:02.768Z,99506.44
2022-12-08T16:04:19.803Z,99505.94
2022-12-08T16:07:12.938Z,99500.81
2022-12-08T16:09:22.289Z,99497.81
2022-12-08T16:12:07.303Z,99493.63
2022-12-08T16:17:31.694Z,99492.03
2022-12-08T16:20:04.101Z,99467.25
2022-12-08T16:25:36.417Z,99486.28
2022-12-08T16:28:52.241Z,99475.91
2022-12-08T16:31:13.069Z,99481.25
2022-12-08T16:33:46.522Z,99471.84
2022-12-08T16:36:16.712Z,99476.53
2022-12-08T16:38:46.774Z,99480.13
2022-12-08T16:41:29.834Z,99473.09
2022-12-08T16:44:04.138Z,99463.78
2022-12-08T16:46:34.955Z,99457.81
2022-12-08T16:49:10.710Z,99460.84
2022-12-08T16:51:40.805Z,99456.78
2022-12-08T16:54:10.823Z,99468.38
2022-12-08T16:56:41.026Z,99469.41
2022-12-08T16:59:11.113Z,99476.63
2022-12-08T17:01:41.745Z,99477.16
2022-12-08T17:04:30.989Z,99485.31
2022-12-08T17:07:02.339Z,99485.53
2022-12-08T17:09:34.404Z,99479.88
2022-12-08T17:12:04.573Z,99478.78
2022-12-08T17:14:37.388Z,99476.06
2022-12-08T17:17:07.474Z,99474.84
2022-12-08T17:19:40.599Z,99486.88
2022-12-08T17:22:10.638Z,99478.28
2022-12-08T17:24:40.864Z,99477.78
2022-12-08T17:27:11.495Z,99478.28
2022-12-08T17:29:41.652Z,99473.50
2022-12-08T17:32:11.942Z,99470.53
2022-12-08T17:34:44.884Z,99470.41
2022-12-08T17:37:15.403Z,99478.50
2022-12-08T17:39:45.904Z,99470.84
2022-12-08T17:42:15.988Z,99468.34
2022-12-08T17:44:46.808Z,99468.22
2022-12-08T17:47:16.835Z,99460.91
2022-12-08T17:49:49.561Z,99450.75
2022-12-08T17:52:19.754Z,99461.22
2022-12-08T17:54:49.849Z,99468.44
2022-12-08T17:57:19.928Z,99467.69
2022-12-08T17:59:50.085Z,99457.03
2022-12-08T18:02:21.218Z,99460.91
2022-12-08T18:04:53.966Z,99472.75
2022-12-08T18:07:24.020Z,99472.03
2022-12-08T18:09:54.588Z,99473.81
2022-12-08T18:12:24.863Z,99469.41
2022-12-08T18:14:55.154Z,99462.28
2022-12-08T18:17:25.280Z,99455.28
2022-12-08T18:19:58.266Z,99471.81
2022-12-08T18:22:28.367Z,99468.25
2022-12-08T18:24:58.399Z,99459.47
2022-12-08T18:27:28.453Z,99464.38
2022-12-08T18:29:58.524Z,99457.06
2022-12-08T18:32:31.762Z,99459.88
2022-12-08T18:35:05.068Z,99456.22
2022-12-08T18:37:35.185Z,99442.41
2022-12-08T18:40:06.822Z,99440.84
2022-12-08T18:42:42.616Z,99436.44
2022-12-08T18:45:16.782Z,99437.69
2022-12-08T18:47:52.034Z,99437.50
2022-12-08T18:50:24.734Z,99446.38
2022-12-08T18:52:54.822Z,99456.84
2022-12-08T18:55:24.917Z,99456.63
2022-12-08T18:57:55.027Z,99465.63
2022-12-08T19:00:25.194Z,99474.00
2022-12-08T19:02:58.014Z,99485.97
2022-12-08T19:05:32.837Z,99482.50
2022-12-08T19:08:06.301Z,99475.78
2022-12-08T19:10:40.830Z,99475.78
2022-12-08T19:13:11.077Z,99469.09
2022-12-08T19:15:41.180Z,99467.50
2022-12-08T19:18:11.437Z,99486.25
2022-12-08T19:20:46.555Z,99486.16
2022-12-08T19:23:17.061Z,99482.81
2022-12-08T19:25:47.254Z,99472.22
2022-12-08T19:28:17.393Z,99465.31
2022-12-08T19:30:47.606Z,99469.81
2022-12-08T19:33:17.753Z,99473.06
2022-12-08T19:35:52.769Z,99467.81
2022-12-08T19:38:22.994Z,99462.81
2022-12-08T19:41:05.550Z,99457.13
2022-12-08T19:43:48.188Z,99460.69
2022-12-08T19:46:18.430Z,99456.63
2022-12-08T19:48:48.763Z,99446.06
2022-12-08T19:51:26.767Z,99444.91
2022-12-08T19:53:56.765Z,99441.34
2022-12-08T19:56:26.868Z,99451.06
2022-12-08T19:58:57.178Z,99448.56
2022-12-08T20:01:30.558Z,99445.94
2022-12-08T20:04:00.714Z,99447.94
2022-12-08T20:06:33.754Z,99445.94
2022-12-08T20:09:05.393Z,99452.94
2022-12-08T20:11:35.555Z,99449.63
2022-12-08T20:14:05.590Z,99455.69
2022-12-08T20:16:36.430Z,99451.50
2022-12-08T20:19:07.216Z,99447.22
2022-12-08T20:21:41.679Z,99434.22
2022-12-08T20:24:11.956Z,99434.72
2022-12-08T20:26:42.104Z,99440.38
2022-12-08T20:29:12.557Z,99426.34
2022-12-08T20:31:42.666Z,99421.13
2022-12-08T20:34:16.914Z,99422.16
2022-12-08T20:36:49.498Z,99423.53
2022-12-08T20:39:21.476Z,99417.38
2022-12-08T20:41:52.261Z,99422.50
2022-12-08T20:44:22.376Z,99418.94
2022-12-08T20:46:52.544Z,99416.44
2022-12-08T20:49:22.679Z,99416.22
2022-12-08T20:51:55.401Z,99415.50
2022-12-08T20:54:25.760Z,99425.00
2022-12-08T20:56:56.108Z,99429.31
2022-12-08T20:59:26.532Z,99430.13
2022-12-08T21:01:57.209Z,99425.75
2022-12-08T21:04:27.578Z,99421.34
2022-12-08T21:07:00.703Z,99425.00
2022-12-08T21:09:31.046Z,99426.69
2022-12-08T21:12:01.350Z,99430.13
2022-12-08T21:14:31.538Z,99421.56
2022-12-08T21:17:01.895Z,99421.56
2022-12-08T21:19:32.188Z,99416.63
2022-12-08T21:22:05.045Z,99417.47
2022-12-08T21:24:35.429Z,99425.09
2022-12-08T21:27:05.837Z,99426.69
2022-12-08T21:29:35.934Z,99427.31
2022-12-08T21:32:06.597Z,99423.03
2022-12-08T21:34:37.355Z,99419.69
2022-12-08T21:37:10.044Z,99413.41
2022-12-08T21:39:40.376Z,99428.91
2022-12-08T21:42:23.035Z,99417.50
2022-12-08T21:44:53.981Z,99411.09
2022-12-08T21:47:24.273Z,99409.00
2022-12-08T21:49:54.490Z,99411.44
2022-12-08T21:52:29.793Z,99415.81
2022-12-08T21:54:59.989Z,99414.25
2022-12-08T21:57:30.113Z,99411.63
2022-12-08T22:00:01.677Z,99412.47
2022-12-08T22:02:32.406Z,99402.00
2022-12-08T22:05:02.572Z,99402.84
2022-12-08T22:07:35.675Z,99404.41
2022-12-08T22:10:07.751Z,99402.00
2022-12-08T22:12:39.586Z,99400.22
2022-12-08T22:15:11.948Z,99403.56
2022-12-08T22:17:44.524Z,99405.47
2022-12-08T22:20:17.315Z,99404.72
2022-12-08T22:22:49.974Z,99402.50
2022-12-08T22:25:20.681Z,99415.28
2022-12-08T22:27:50.881Z,99400.31
2022-12-08T22:30:21.537Z,99406.41
2022-12-08T22:32:51.637Z,99415.19
2022-12-08T22:35:21.875Z,99417.69
2022-12-08T22:37:57.945Z,99419.28
2022-12-08T22:40:27.952Z,99428.06
2022-12-08T22:42:58.001Z,99427.44
2022-12-08T22:45:28.205Z,99424.16
2022-12-08T22:47:58.334Z,99420.50
2022-12-08T22:50:28.364Z,99420.50
2022-12-08T22:53:01.044Z,99417.78
2022-12-08T22:55:31.281Z,99419.78
2022-12-08T22:58:01.359Z,99416.31
2022-12-08T23:00:31.995Z,99414.53
2022-12-08T23:03:02.374Z,99416.31
2022-12-08T23:05:35.346Z,99405.47
2022-12-08T23:08:10.011Z,99393.72
2022-12-08T23:10:42.516Z,99390.47
2022-12-08T23:13:13.341Z,99393.84
2022-12-08T23:15:44.386Z,99391.94
2022-12-08T23:18:17.088Z,99396.13
2022-12-08T23:20:48.245Z,99405.66
2022-12-08T23:23:21.200Z,99401.38
2022-12-08T23:25:51.473Z,99395.00
2022-12-08T23:28:21.501Z,99393.13
2022-12-08T23:30:51.970Z,99390.50
2022-12-08T23:33:22.556Z,99379.63
2022-12-08T23:35:59.575Z,99367.78
2022-12-08T23:38:32.179Z,99370.31
2022-12-08T23:41:03.801Z,99379.59
2022-12-08T23:43:34.105Z,99364.59
2022-12-08T23:46:04.796Z,99374.84
2022-12-08T23:48:35.315Z,99391.13
2022-12-08T23:51:05.501Z,99393.09
2022-12-08T23:53:38.716Z,99384.72
2022-12-08T23:56:12.310Z,99386.28
2022-12-08T23:58:43.177Z,99387.78
